sensor_id;sensor_type;location;lat;lon;timestamp;P1;durP1;ratioP1;P2;durP2;ratioP2
16173;SDS011;14031;50.158;8.626;2022-09-23T00:00:11;3.17;;;2.97;;
16173;SDS011;14031;50.158;8.626;2022-09-23T00:02:38;3.07;;;2.57;;
16173;SDS011;14031;50.158;8.626;2022-09-23T00:05:07;3.07;;;2.77;;
16173;SDS011;14031;50.158;8.626;2022-09-23T00:07:35;2.90;;;2.70;;
16173;SDS011;14031;50.158;8.626;2022-09-23T00:10:04;2.87;;;2.67;;
16173;SDS011;14031;50.158;8.626;2022-09-23T00:12:32;2.80;;;2.60;;
16173;SDS011;14031;50.158;8.626;2022-09-23T00:14:59;2.83;;;2.73;;
16173;SDS011;14031;50.158;8.626;2022-09-23T00:17:26;4.27;;;2.90;;
16173;SDS011;14031;50.158;8.626;2022-09-23T00:19:53;3.00;;;2.80;;
16173;SDS011;14031;50.158;8.626;2022-09-23T00:22:20;3.10;;;2.90;;
16173;SDS011;14031;50.158;8.626;2022-09-23T00:24:47;3.13;;;2.93;;
16173;SDS011;14031;50.158;8.626;2022-09-23T00:27:15;2.50;;;2.40;;
16173;SDS011;14031;50.158;8.626;2022-09-23T00:29:45;3.00;;;2.77;;
16173;SDS011;14031;50.158;8.626;2022-09-23T00:32:11;3.17;;;2.93;;
16173;SDS011;14031;50.158;8.626;2022-09-23T00:34:38;9.50;;;6.47;;
16173;SDS011;14031;50.158;8.626;2022-09-23T00:37:05;3.60;;;3.37;;
16173;SDS011;14031;50.158;8.626;2022-09-23T00:39:32;6.73;;;3.03;;
16173;SDS011;14031;50.158;8.626;2022-09-23T00:41:59;2.70;;;2.50;;
16173;SDS011;14031;50.158;8.626;2022-09-23T00:44:46;2.90;;;2.70;;
16173;SDS011;14031;50.158;8.626;2022-09-23T00:47:18;2.67;;;2.50;;
16173;SDS011;14031;50.158;8.626;2022-09-23T00:49:48;5.17;;;2.80;;
16173;SDS011;14031;50.158;8.626;2022-09-23T00:52:24;2.73;;;2.53;;
16173;SDS011;14031;50.158;8.626;2022-09-23T00:54:52;2.90;;;2.70;;
16173;SDS011;14031;50.158;8.626;2022-09-23T00:57:23;4.70;;;2.70;;
16173;SDS011;14031;50.158;8.626;2022-09-23T00:59:52;3.07;;;2.80;;
16173;SDS011;14031;50.158;8.626;2022-09-23T01:02:19;3.03;;;2.83;;
16173;SDS011;14031;50.158;8.626;2022-09-23T01:04:47;2.70;;;2.60;;
16173;SDS011;14031;50.158;8.626;2022-09-23T01:07:15;3.10;;;2.90;;
16173;SDS011;14031;50.158;8.626;2022-09-23T01:09:42;3.00;;;2.77;;
16173;SDS011;14031;50.158;8.626;2022-09-23T01:12:12;3.50;;;2.33;;
16173;SDS011;14031;50.158;8.626;2022-09-23T01:15:04;2.60;;;2.50;;
16173;SDS011;14031;50.158;8.626;2022-09-23T01:17:38;2.90;;;2.70;;
16173;SDS011;14031;50.158;8.626;2022-09-23T01:20:24;3.03;;;2.73;;
16173;SDS011;14031;50.158;8.626;2022-09-23T01:26:36;2.80;;;2.60;;
16173;SDS011;14031;50.158;8.626;2022-09-23T01:29:23;3.10;;;2.90;;
16173;SDS011;14031;50.158;8.626;2022-09-23T01:32:19;3.13;;;2.93;;
16173;SDS011;14031;50.158;8.626;2022-09-23T01:34:56;3.17;;;2.97;;
16173;SDS011;14031;50.158;8.626;2022-09-23T01:37:30;3.07;;;2.87;;
16173;SDS011;14031;50.158;8.626;2022-09-23T01:40:02;3.00;;;2.57;;
16173;SDS011;14031;50.158;8.626;2022-09-23T01:42:36;3.40;;;3.20;;
16173;SDS011;14031;50.158;8.626;2022-09-23T01:45:08;3.10;;;3.00;;
16173;SDS011;14031;50.158;8.626;2022-09-23T01:47:49;2.93;;;2.83;;
16173;SDS011;14031;50.158;8.626;2022-09-23T01:50:20;3.17;;;2.87;;
16173;SDS011;14031;50.158;8.626;2022-09-23T01:53:09;2.60;;;2.50;;
16173;SDS011;14031;50.158;8.626;2022-09-23T01:55:40;3.20;;;3.00;;
16173;SDS011;14031;50.158;8.626;2022-09-23T01:58:12;4.77;;;2.80;;
16173;SDS011;14031;50.158;8.626;2022-09-23T02:00:46;2.80;;;2.60;;
16173;SDS011;14031;50.158;8.626;2022-09-23T02:03:20;2.87;;;2.73;;
16173;SDS011;14031;50.158;8.626;2022-09-23T02:05:51;2.73;;;2.63;;
16173;SDS011;14031;50.158;8.626;2022-09-23T02:08:24;3.43;;;2.50;;
16173;SDS011;14031;50.158;8.626;2022-09-23T02:10:55;2.73;;;2.50;;
16173;SDS011;14031;50.158;8.626;2022-09-23T02:13:29;3.00;;;2.80;;
16173;SDS011;14031;50.158;8.626;2022-09-23T02:16:05;2.97;;;2.80;;
16173;SDS011;14031;50.158;8.626;2022-09-23T02:18:38;2.90;;;2.70;;
16173;SDS011;14031;50.158;8.626;2022-09-23T02:21:10;2.63;;;2.53;;
16173;SDS011;14031;50.158;8.626;2022-09-23T02:23:41;2.90;;;2.73;;
16173;SDS011;14031;50.158;8.626;2022-09-23T02:26:12;5.67;;;3.03;;
16173;SDS011;14031;50.158;8.626;2022-09-23T02:28:46;3.40;;;3.20;;
16173;SDS011;14031;50.158;8.626;2022-09-23T02:31:20;5.50;;;3.13;;
16173;SDS011;14031;50.158;8.626;2022-09-23T02:33:57;3.70;;;3.37;;
16173;SDS011;14031;50.158;8.626;2022-09-23T02:36:31;3.13;;;2.93;;
16173;SDS011;14031;50.158;8.626;2022-09-23T02:39:06;3.33;;;3.10;;
16173;SDS011;14031;50.158;8.626;2022-09-23T02:41:40;4.60;;;3.03;;
16173;SDS011;14031;50.158;8.626;2022-09-23T02:44:16;3.47;;;3.27;;
16173;SDS011;14031;50.158;8.626;2022-09-23T02:46:45;3.27;;;2.87;;
16173;SDS011;14031;50.158;8.626;2022-09-23T02:49:16;2.80;;;2.60;;
16173;SDS011;14031;50.158;8.626;2022-09-23T02:51:46;2.97;;;2.87;;
16173;SDS011;14031;50.158;8.626;2022-09-23T02:54:15;3.10;;;3.00;;
16173;SDS011;14031;50.158;8.626;2022-09-23T02:56:44;3.27;;;3.00;;
16173;SDS011;14031;50.158;8.626;2022-09-23T02:59:13;2.97;;;2.77;;
16173;SDS011;14031;50.158;8.626;2022-09-23T03:01:43;3.67;;;3.30;;
16173;SDS011;14031;50.158;8.626;2022-09-23T03:04:24;3.20;;;3.00;;
16173;SDS011;14031;50.158;8.626;2022-09-23T03:07:01;3.87;;;3.20;;
16173;SDS011;14031;50.158;8.626;2022-09-23T03:09:32;3.00;;;2.77;;
16173;SDS011;14031;50.158;8.626;2022-09-23T03:12:03;3.50;;;3.20;;
16173;SDS011;14031;50.158;8.626;2022-09-23T03:14:39;3.13;;;2.90;;
16173;SDS011;14031;50.158;8.626;2022-09-23T03:17:17;3.57;;;3.30;;
16173;SDS011;14031;50.158;8.626;2022-09-23T03:19:48;2.97;;;2.80;;
16173;SDS011;14031;50.158;8.626;2022-09-23T03:22:21;3.07;;;2.87;;
16173;SDS011;14031;50.158;8.626;2022-09-23T03:24:55;3.27;;;2.97;;
16173;SDS011;14031;50.158;8.626;2022-09-23T03:27:28;3.00;;;2.80;;
16173;SDS011;14031;50.158;8.626;2022-09-23T03:29:57;2.63;;;2.50;;
16173;SDS011;14031;50.158;8.626;2022-09-23T03:32:25;5.33;;;2.60;;
16173;SDS011;14031;50.158;8.626;2022-09-23T03:34:56;2.67;;;2.57;;
16173;SDS011;14031;50.158;8.626;2022-09-23T03:37:26;2.83;;;2.73;;
16173;SDS011;14031;50.158;8.626;2022-09-23T03:40:02;2.73;;;2.60;;
16173;SDS011;14031;50.158;8.626;2022-09-23T03:42:36;3.13;;;2.80;;
16173;SDS011;14031;50.158;8.626;2022-09-23T03:45:13;3.27;;;2.90;;
16173;SDS011;14031;50.158;8.626;2022-09-23T03:47:43;6.47;;;5.83;;
16173;SDS011;14031;50.158;8.626;2022-09-23T03:50:12;2.77;;;2.47;;
16173;SDS011;14031;50.158;8.626;2022-09-23T03:52:41;2.67;;;2.57;;
16173;SDS011;14031;50.158;8.626;2022-09-23T03:55:08;5.73;;;2.80;;
16173;SDS011;14031;50.158;8.626;2022-09-23T03:57:36;3.00;;;2.80;;
16173;SDS011;14031;50.158;8.626;2022-09-23T04:00:04;2.80;;;2.70;;
16173;SDS011;14031;50.158;8.626;2022-09-23T04:02:32;3.03;;;2.70;;
16173;SDS011;14031;50.158;8.626;2022-09-23T04:04:58;3.67;;;2.87;;
16173;SDS011;14031;50.158;8.626;2022-09-23T04:07:26;3.30;;;3.10;;
16173;SDS011;14031;50.158;8.626;2022-09-23T04:09:59;4.43;;;3.10;;
16173;SDS011;14031;50.158;8.626;2022-09-23T04:12:27;3.30;;;3.10;;
16173;SDS011;14031;50.158;8.626;2022-09-23T04:14:57;3.50;;;3.20;;
16173;SDS011;14031;50.158;8.626;2022-09-23T04:17:24;3.60;;;3.30;;
16173;SDS011;14031;50.158;8.626;2022-09-23T04:19:50;3.93;;;3.67;;
16173;SDS011;14031;50.158;8.626;2022-09-23T04:22:17;3.57;;;3.37;;
16173;SDS011;14031;50.158;8.626;2022-09-23T04:24:50;3.00;;;2.90;;
16173;SDS011;14031;50.158;8.626;2022-09-23T04:27:16;5.73;;;3.00;;
16173;SDS011;14031;50.158;8.626;2022-09-23T04:29:43;3.63;;;3.10;;
16173;SDS011;14031;50.158;8.626;2022-09-23T04:32:10;3.50;;;3.20;;
16173;SDS011;14031;50.158;8.626;2022-09-23T04:34:37;3.50;;;3.30;;
16173;SDS011;14031;50.158;8.626;2022-09-23T04:37:03;3.10;;;2.90;;
16173;SDS011;14031;50.158;8.626;2022-09-23T04:39:30;3.50;;;3.30;;
16173;SDS011;14031;50.158;8.626;2022-09-23T04:41:58;4.93;;;2.97;;
16173;SDS011;14031;50.158;8.626;2022-09-23T04:44:29;3.23;;;3.13;;
16173;SDS011;14031;50.158;8.626;2022-09-23T04:46:57;5.27;;;3.13;;
16173;SDS011;14031;50.158;8.626;2022-09-23T04:49:23;3.70;;;3.40;;
16173;SDS011;14031;50.158;8.626;2022-09-23T04:51:50;5.40;;;3.23;;
16173;SDS011;14031;50.158;8.626;2022-09-23T04:54:18;3.00;;;2.90;;
16173;SDS011;14031;50.158;8.626;2022-09-23T04:56:45;3.70;;;3.40;;
16173;SDS011;14031;50.158;8.626;2022-09-23T04:59:13;3.10;;;2.90;;
16173;SDS011;14031;50.158;8.626;2022-09-23T05:01:40;4.77;;;3.10;;
16173;SDS011;14031;50.158;8.626;2022-09-23T05:04:08;3.13;;;2.93;;
16173;SDS011;14031;50.158;8.626;2022-09-23T05:06:37;3.23;;;3.03;;
16173;SDS011;14031;50.158;8.626;2022-09-23T05:09:05;3.50;;;3.30;;
16173;SDS011;14031;50.158;8.626;2022-09-23T05:11:35;3.90;;;3.53;;
16173;SDS011;14031;50.158;8.626;2022-09-23T05:14:02;4.17;;;3.57;;
16173;SDS011;14031;50.158;8.626;2022-09-23T05:16:30;4.00;;;3.70;;
16173;SDS011;14031;50.158;8.626;2022-09-23T05:18:56;4.03;;;3.73;;
16173;SDS011;14031;50.158;8.626;2022-09-23T05:21:24;3.73;;;3.43;;
16173;SDS011;14031;50.158;8.626;2022-09-23T05:23:53;4.23;;;4.03;;
16173;SDS011;14031;50.158;8.626;2022-09-23T05:26:30;4.20;;;3.97;;
16173;SDS011;14031;50.158;8.626;2022-09-23T05:28:57;6.30;;;3.60;;
16173;SDS011;14031;50.158;8.626;2022-09-23T05:31:25;4.43;;;4.03;;
16173;SDS011;14031;50.158;8.626;2022-09-23T05:33:55;3.53;;;3.33;;
16173;SDS011;14031;50.158;8.626;2022-09-23T05:36:23;4.27;;;4.03;;
16173;SDS011;14031;50.158;8.626;2022-09-23T05:38:51;4.60;;;4.13;;
16173;SDS011;14031;50.158;8.626;2022-09-23T05:41:20;5.77;;;4.40;;
16173;SDS011;14031;50.158;8.626;2022-09-23T05:43:48;6.13;;;3.93;;
16173;SDS011;14031;50.158;8.626;2022-09-23T05:46:16;7.07;;;4.10;;
16173;SDS011;14031;50.158;8.626;2022-09-23T05:48:44;6.70;;;3.50;;
16173;SDS011;14031;50.158;8.626;2022-09-23T05:51:14;3.93;;;3.70;;
16173;SDS011;14031;50.158;8.626;2022-09-23T05:53:42;10.57;;;3.70;;
16173;SDS011;14031;50.158;8.626;2022-09-23T05:56:09;4.47;;;3.70;;
16173;SDS011;14031;50.158;8.626;2022-09-23T05:58:37;3.87;;;3.67;;
16173;SDS011;14031;50.158;8.626;2022-09-23T06:01:07;3.87;;;3.43;;
16173;SDS011;14031;50.158;8.626;2022-09-23T06:03:35;4.27;;;3.73;;
16173;SDS011;14031;50.158;8.626;2022-09-23T06:06:02;3.80;;;3.60;;
16173;SDS011;14031;50.158;8.626;2022-09-23T06:08:30;3.63;;;3.43;;
16173;SDS011;14031;50.158;8.626;2022-09-23T06:10:57;3.93;;;3.63;;
16173;SDS011;14031;50.158;8.626;2022-09-23T06:13:31;3.70;;;3.50;;
16173;SDS011;14031;50.158;8.626;2022-09-23T06:15:59;3.60;;;3.40;;
16173;SDS011;14031;50.158;8.626;2022-09-23T06:18:28;3.90;;;3.60;;
16173;SDS011;14031;50.158;8.626;2022-09-23T06:20:55;5.07;;;3.57;;
16173;SDS011;14031;50.158;8.626;2022-09-23T06:23:24;5.87;;;4.70;;
16173;SDS011;14031;50.158;8.626;2022-09-23T06:25:53;3.70;;;3.40;;
16173;SDS011;14031;50.158;8.626;2022-09-23T06:28:24;3.73;;;3.53;;
16173;SDS011;14031;50.158;8.626;2022-09-23T06:30:55;3.87;;;3.47;;
16173;SDS011;14031;50.158;8.626;2022-09-23T06:33:22;3.93;;;3.63;;
16173;SDS011;14031;50.158;8.626;2022-09-23T06:35:52;4.17;;;3.13;;
16173;SDS011;14031;50.158;8.626;2022-09-23T06:38:20;3.67;;;3.37;;
16173;SDS011;14031;50.158;8.626;2022-09-23T06:40:48;4.60;;;3.83;;
16173;SDS011;14031;50.158;8.626;2022-09-23T06:43:16;3.67;;;3.47;;
16173;SDS011;14031;50.158;8.626;2022-09-23T06:45:43;5.83;;;3.50;;
16173;SDS011;14031;50.158;8.626;2022-09-23T06:48:10;3.87;;;3.57;;
16173;SDS011;14031;50.158;8.626;2022-09-23T06:50:37;4.10;;;3.43;;
16173;SDS011;14031;50.158;8.626;2022-09-23T06:53:04;5.07;;;3.63;;
16173;SDS011;14031;50.158;8.626;2022-09-23T06:55:31;4.03;;;3.73;;
16173;SDS011;14031;50.158;8.626;2022-09-23T06:57:57;4.30;;;4.00;;
16173;SDS011;14031;50.158;8.626;2022-09-23T07:00:26;4.57;;;3.50;;
16173;SDS011;14031;50.158;8.626;2022-09-23T07:02:53;4.00;;;3.80;;
16173;SDS011;14031;50.158;8.626;2022-09-23T07:05:21;4.00;;;3.70;;
16173;SDS011;14031;50.158;8.626;2022-09-23T07:07:47;3.80;;;3.50;;
16173;SDS011;14031;50.158;8.626;2022-09-23T07:10:14;4.37;;;3.97;;
16173;SDS011;14031;50.158;8.626;2022-09-23T07:12:41;9.07;;;3.70;;
16173;SDS011;14031;50.158;8.626;2022-09-23T07:15:08;9.47;;;3.83;;
16173;SDS011;14031;50.158;8.626;2022-09-23T07:17:39;3.40;;;3.10;;
16173;SDS011;14031;50.158;8.626;2022-09-23T07:20:08;3.93;;;3.70;;
16173;SDS011;14031;50.158;8.626;2022-09-23T07:22:36;3.63;;;3.33;;
16173;SDS011;14031;50.158;8.626;2022-09-23T07:25:19;3.70;;;3.40;;
16173;SDS011;14031;50.158;8.626;2022-09-23T07:27:47;5.17;;;3.47;;
16173;SDS011;14031;50.158;8.626;2022-09-23T07:30:21;6.37;;;3.80;;
16173;SDS011;14031;50.158;8.626;2022-09-23T07:32:52;4.40;;;4.00;;
16173;SDS011;14031;50.158;8.626;2022-09-23T07:35:19;4.73;;;4.20;;
16173;SDS011;14031;50.158;8.626;2022-09-23T07:37:45;4.10;;;3.70;;
16173;SDS011;14031;50.158;8.626;2022-09-23T07:40:12;4.47;;;3.77;;
16173;SDS011;14031;50.158;8.626;2022-09-23T07:42:39;3.70;;;3.50;;
16173;SDS011;14031;50.158;8.626;2022-09-23T07:45:07;3.83;;;3.53;;
16173;SDS011;14031;50.158;8.626;2022-09-23T07:47:34;3.70;;;3.50;;
16173;SDS011;14031;50.158;8.626;2022-09-23T07:50:05;4.27;;;3.70;;
16173;SDS011;14031;50.158;8.626;2022-09-23T07:52:34;4.47;;;4.07;;
16173;SDS011;14031;50.158;8.626;2022-09-23T07:55:01;3.80;;;3.60;;
16173;SDS011;14031;50.158;8.626;2022-09-23T07:57:29;4.57;;;4.27;;
16173;SDS011;14031;50.158;8.626;2022-09-23T07:59:56;5.97;;;5.17;;
16173;SDS011;14031;50.158;8.626;2022-09-23T08:02:23;4.17;;;3.97;;
16173;SDS011;14031;50.158;8.626;2022-09-23T08:04:49;4.50;;;4.20;;
16173;SDS011;14031;50.158;8.626;2022-09-23T08:07:18;6.83;;;3.83;;
16173;SDS011;14031;50.158;8.626;2022-09-23T08:09:45;3.97;;;3.67;;
16173;SDS011;14031;50.158;8.626;2022-09-23T08:12:13;4.10;;;3.80;;
16173;SDS011;14031;50.158;8.626;2022-09-23T08:14:42;4.83;;;3.87;;
16173;SDS011;14031;50.158;8.626;2022-09-23T08:17:10;3.50;;;3.30;;
16173;SDS011;14031;50.158;8.626;2022-09-23T08:19:37;3.90;;;3.70;;
16173;SDS011;14031;50.158;8.626;2022-09-23T08:22:04;4.60;;;3.77;;
16173;SDS011;14031;50.158;8.626;2022-09-23T08:24:32;7.33;;;3.77;;
16173;SDS011;14031;50.158;8.626;2022-09-23T08:26:59;5.90;;;3.60;;
16173;SDS011;14031;50.158;8.626;2022-09-23T08:29:26;4.17;;;3.87;;
16173;SDS011;14031;50.158;8.626;2022-09-23T08:31:53;4.17;;;3.97;;
16173;SDS011;14031;50.158;8.626;2022-09-23T08:34:20;4.73;;;4.43;;
16173;SDS011;14031;50.158;8.626;2022-09-23T08:36:48;4.13;;;3.87;;
16173;SDS011;14031;50.158;8.626;2022-09-23T08:39:17;4.20;;;3.90;;
16173;SDS011;14031;50.158;8.626;2022-09-23T08:41:47;4.40;;;4.10;;
16173;SDS011;14031;50.158;8.626;2022-09-23T08:44:26;4.70;;;3.83;;
16173;SDS011;14031;50.158;8.626;2022-09-23T08:47:02;5.83;;;4.10;;
16173;SDS011;14031;50.158;8.626;2022-09-23T08:49:36;5.03;;;4.03;;
16173;SDS011;14031;50.158;8.626;2022-09-23T08:52:07;4.13;;;3.70;;
16173;SDS011;14031;50.158;8.626;2022-09-23T08:54:40;4.10;;;3.80;;
16173;SDS011;14031;50.158;8.626;2022-09-23T08:57:09;5.43;;;4.23;;
16173;SDS011;14031;50.158;8.626;2022-09-23T08:59:50;3.80;;;3.60;;
16173;SDS011;14031;50.158;8.626;2022-09-23T09:02:17;5.30;;;3.80;;
16173;SDS011;14031;50.158;8.626;2022-09-23T09:04:46;4.70;;;4.40;;
16173;SDS011;14031;50.158;8.626;2022-09-23T09:07:18;4.17;;;3.83;;
16173;SDS011;14031;50.158;8.626;2022-09-23T09:09:49;4.73;;;4.20;;
16173;SDS011;14031;50.158;8.626;2022-09-23T09:12:27;4.63;;;4.23;;
16173;SDS011;14031;50.158;8.626;2022-09-23T09:15:00;8.07;;;4.50;;
16173;SDS011;14031;50.158;8.626;2022-09-23T09:17:33;3.47;;;3.30;;
16173;SDS011;14031;50.158;8.626;2022-09-23T09:20:04;4.47;;;4.10;;
16173;SDS011;14031;50.158;8.626;2022-09-23T09:22:46;4.13;;;3.93;;
16173;SDS011;14031;50.158;8.626;2022-09-23T09:25:21;4.00;;;3.80;;
16173;SDS011;14031;50.158;8.626;2022-09-23T09:27:51;4.10;;;3.80;;
16173;SDS011;14031;50.158;8.626;2022-09-23T09:30:19;3.53;;;3.33;;
16173;SDS011;14031;50.158;8.626;2022-09-23T09:32:47;4.57;;;3.80;;
16173;SDS011;14031;50.158;8.626;2022-09-23T09:35:23;3.70;;;3.50;;
16173;SDS011;14031;50.158;8.626;2022-09-23T09:37:58;5.70;;;5.00;;
16173;SDS011;14031;50.158;8.626;2022-09-23T09:40:25;6.57;;;5.97;;
16173;SDS011;14031;50.158;8.626;2022-09-23T09:42:54;3.93;;;3.63;;
16173;SDS011;14031;50.158;8.626;2022-09-23T09:45:26;8.90;;;3.60;;
16173;SDS011;14031;50.158;8.626;2022-09-23T09:48:00;3.67;;;3.47;;
16173;SDS011;14031;50.158;8.626;2022-09-23T09:50:43;5.17;;;4.20;;
16173;SDS011;14031;50.158;8.626;2022-09-23T09:53:21;3.90;;;3.60;;
16173;SDS011;14031;50.158;8.626;2022-09-23T09:55:59;3.73;;;3.43;;
16173;SDS011;14031;50.158;8.626;2022-09-23T09:58:31;4.27;;;3.97;;
16173;SDS011;14031;50.158;8.626;2022-09-23T10:01:18;6.00;;;3.33;;
16173;SDS011;14031;50.158;8.626;2022-09-23T10:03:46;3.57;;;3.13;;
16173;SDS011;14031;50.158;8.626;2022-09-23T10:06:17;4.97;;;3.57;;
16173;SDS011;14031;50.158;8.626;2022-09-23T10:08:46;3.50;;;3.30;;
16173;SDS011;14031;50.158;8.626;2022-09-23T10:11:27;3.60;;;3.33;;
16173;SDS011;14031;50.158;8.626;2022-09-23T10:14:03;8.03;;;3.50;;
16173;SDS011;14031;50.158;8.626;2022-09-23T10:16:35;4.10;;;3.80;;
16173;SDS011;14031;50.158;8.626;2022-09-23T10:19:02;5.00;;;4.47;;
16173;SDS011;14031;50.158;8.626;2022-09-23T10:21:36;4.53;;;3.40;;
16173;SDS011;14031;50.158;8.626;2022-09-23T10:24:06;4.40;;;3.40;;
16173;SDS011;14031;50.158;8.626;2022-09-23T10:26:36;4.20;;;3.30;;
16173;SDS011;14031;50.158;8.626;2022-09-23T10:29:19;3.60;;;3.40;;
16173;SDS011;14031;50.158;8.626;2022-09-23T10:31:48;3.50;;;3.30;;
16173;SDS011;14031;50.158;8.626;2022-09-23T10:34:39;5.35;;;3.00;;
16173;SDS011;14031;50.158;8.626;2022-09-23T10:37:12;3.83;;;2.70;;
16173;SDS011;14031;50.158;8.626;2022-09-23T10:39:42;4.28;;;3.08;;
16173;SDS011;14031;50.158;8.626;2022-09-23T10:42:28;3.95;;;2.72;;
16173;SDS011;14031;50.158;8.626;2022-09-23T10:45:19;2.58;;;2.40;;
16173;SDS011;14031;50.158;8.626;2022-09-23T10:48:11;3.05;;;2.78;;
16173;SDS011;14031;50.158;8.626;2022-09-23T10:50:43;3.08;;;2.70;;
16173;SDS011;14031;50.158;8.626;2022-09-23T10:53:17;3.20;;;2.90;;
16173;SDS011;14031;50.158;8.626;2022-09-23T10:55:52;5.97;;;2.78;;
16173;SDS011;14031;50.158;8.626;2022-09-23T11:01:32;3.22;;;2.50;;
16173;SDS011;14031;50.158;8.626;2022-09-23T11:04:17;5.10;;;3.88;;
16173;SDS011;14031;50.158;8.626;2022-09-23T11:07:06;3.78;;;3.47;;
16173;SDS011;14031;50.158;8.626;2022-09-23T11:09:45;2.40;;;2.30;;
16173;SDS011;14031;50.158;8.626;2022-09-23T11:12:34;2.53;;;2.35;;
16173;SDS011;14031;50.158;8.626;2022-09-23T11:15:14;2.30;;;2.20;;
16173;SDS011;14031;50.158;8.626;2022-09-23T11:18:04;3.10;;;2.33;;
16173;SDS011;14031;50.158;8.626;2022-09-23T11:20:46;3.08;;;2.25;;
16173;SDS011;14031;50.158;8.626;2022-09-23T11:23:28;5.95;;;2.30;;
16173;SDS011;14031;50.158;8.626;2022-09-23T11:26:07;2.53;;;2.28;;
16173;SDS011;14031;50.158;8.626;2022-09-23T11:28:51;6.60;;;2.30;;
16173;SDS011;14031;50.158;8.626;2022-09-23T11:31:30;2.55;;;2.28;;
16173;SDS011;14031;50.158;8.626;2022-09-23T11:34:09;2.58;;;2.17;;
16173;SDS011;14031;50.158;8.626;2022-09-23T11:36:51;2.40;;;2.30;;
16173;SDS011;14031;50.158;8.626;2022-09-23T11:39:22;2.03;;;1.92;;
16173;SDS011;14031;50.158;8.626;2022-09-23T11:41:54;2.80;;;2.05;;
16173;SDS011;14031;50.158;8.626;2022-09-23T11:44:25;1.75;;;1.73;;
16173;SDS011;14031;50.158;8.626;2022-09-23T11:46:58;2.33;;;2.22;;
16173;SDS011;14031;50.158;8.626;2022-09-23T11:49:31;2.53;;;1.85;;
16173;SDS011;14031;50.158;8.626;2022-09-23T11:52:05;1.60;;;1.60;;
16173;SDS011;14031;50.158;8.626;2022-09-23T11:54:39;3.28;;;2.10;;
16173;SDS011;14031;50.158;8.626;2022-09-23T11:57:13;2.75;;;2.60;;
16173;SDS011;14031;50.158;8.626;2022-09-23T11:59:47;6.40;;;3.65;;
16173;SDS011;14031;50.158;8.626;2022-09-23T12:02:20;2.58;;;2.30;;
16173;SDS011;14031;50.158;8.626;2022-09-23T12:04:56;2.65;;;2.47;;
16173;SDS011;14031;50.158;8.626;2022-09-23T12:07:28;2.30;;;2.20;;
16173;SDS011;14031;50.158;8.626;2022-09-23T12:10:05;2.22;;;2.13;;
16173;SDS011;14031;50.158;8.626;2022-09-23T12:12:34;1.90;;;1.80;;
16173;SDS011;14031;50.158;8.626;2022-09-23T12:15:12;2.10;;;2.00;;
16173;SDS011;14031;50.158;8.626;2022-09-23T12:20:48;2.35;;;2.15;;
16173;SDS011;14031;50.158;8.626;2022-09-23T12:23:38;2.47;;;2.28;;
16173;SDS011;14031;50.158;8.626;2022-09-23T12:26:26;2.20;;;2.03;;
16173;SDS011;14031;50.158;8.626;2022-09-23T12:28:59;2.42;;;2.10;;
16173;SDS011;14031;50.158;8.626;2022-09-23T12:31:28;2.47;;;2.30;;
16173;SDS011;14031;50.158;8.626;2022-09-23T12:33:57;2.10;;;2.00;;
16173;SDS011;14031;50.158;8.626;2022-09-23T12:36:28;1.92;;;1.80;;
16173;SDS011;14031;50.158;8.626;2022-09-23T12:39:00;1.70;;;1.60;;
16173;SDS011;14031;50.158;8.626;2022-09-23T12:41:29;1.33;;;1.33;;
16173;SDS011;14031;50.158;8.626;2022-09-23T12:44:12;2.10;;;2.00;;
16173;SDS011;14031;50.158;8.626;2022-09-23T12:46:40;2.30;;;1.90;;
16173;SDS011;14031;50.158;8.626;2022-09-23T12:49:20;2.08;;;1.98;;
16173;SDS011;14031;50.158;8.626;2022-09-23T12:54:54;2.90;;;1.98;;
16173;SDS011;14031;50.158;8.626;2022-09-23T12:57:40;2.22;;;1.90;;
16173;SDS011;14031;50.158;8.626;2022-09-23T13:02:54;2.70;;;1.90;;
16173;SDS011;14031;50.158;8.626;2022-09-23T13:05:42;1.88;;;1.77;;
16173;SDS011;14031;50.158;8.626;2022-09-23T13:08:39;4.60;;;2.30;;
16173;SDS011;14031;50.158;8.626;2022-09-23T13:11:20;2.00;;;1.83;;
16173;SDS011;14031;50.158;8.626;2022-09-23T13:13:50;1.90;;;1.80;;
16173;SDS011;14031;50.158;8.626;2022-09-23T13:16:20;2.63;;;2.40;;
16173;SDS011;14031;50.158;8.626;2022-09-23T13:18:50;2.55;;;2.05;;
16173;SDS011;14031;50.158;8.626;2022-09-23T13:27:14;2.00;;;1.90;;
16173;SDS011;14031;50.158;8.626;2022-09-23T13:29:56;2.58;;;1.85;;
16173;SDS011;14031;50.158;8.626;2022-09-23T13:32:26;1.42;;;1.42;;
16173;SDS011;14031;50.158;8.626;2022-09-23T13:34:57;6.20;;;5.80;;
16173;SDS011;14031;50.158;8.626;2022-09-23T13:37:30;9.68;;;7.88;;
16173;SDS011;14031;50.158;8.626;2022-09-23T13:40:07;2.35;;;2.25;;
16173;SDS011;14031;50.158;8.626;2022-09-23T13:42:41;2.08;;;1.98;;
16173;SDS011;14031;50.158;8.626;2022-09-23T13:45:12;1.67;;;1.58;;
16173;SDS011;14031;50.158;8.626;2022-09-23T13:47:42;1.83;;;1.77;;
16173;SDS011;14031;50.158;8.626;2022-09-23T13:50:14;2.95;;;2.20;;
16173;SDS011;14031;50.158;8.626;2022-09-23T13:52:43;2.05;;;1.92;;
16173;SDS011;14031;50.158;8.626;2022-09-23T13:55:28;2.20;;;2.10;;
16173;SDS011;14031;50.158;8.626;2022-09-23T13:58:00;4.47;;;2.05;;
16173;SDS011;14031;50.158;8.626;2022-09-23T14:00:36;3.95;;;1.90;;
16173;SDS011;14031;50.158;8.626;2022-09-23T14:03:15;1.92;;;1.83;;
16173;SDS011;14031;50.158;8.626;2022-09-23T14:05:52;2.03;;;1.92;;
16173;SDS011;14031;50.158;8.626;2022-09-23T14:08:20;3.13;;;1.95;;
16173;SDS011;14031;50.158;8.626;2022-09-23T14:10:49;2.10;;;1.83;;
16173;SDS011;14031;50.158;8.626;2022-09-23T14:13:19;2.58;;;2.00;;
16173;SDS011;14031;50.158;8.626;2022-09-23T14:15:48;2.47;;;2.28;;
16173;SDS011;14031;50.158;8.626;2022-09-23T14:18:25;2.38;;;2.08;;
16173;SDS011;14031;50.158;8.626;2022-09-23T14:20:57;5.30;;;1.95;;
16173;SDS011;14031;50.158;8.626;2022-09-23T14:23:24;2.00;;;1.80;;
16173;SDS011;14031;50.158;8.626;2022-09-23T14:25:52;1.88;;;1.77;;
16173;SDS011;14031;50.158;8.626;2022-09-23T14:28:21;2.70;;;2.30;;
16173;SDS011;14031;50.158;8.626;2022-09-23T14:30:50;2.28;;;2.15;;
16173;SDS011;14031;50.158;8.626;2022-09-23T14:33:22;1.90;;;1.80;;
16173;SDS011;14031;50.158;8.626;2022-09-23T14:35:52;2.40;;;2.20;;
16173;SDS011;14031;50.158;8.626;2022-09-23T14:38:22;2.03;;;1.92;;
16173;SDS011;14031;50.158;8.626;2022-09-23T14:41:14;2.30;;;2.20;;
16173;SDS011;14031;50.158;8.626;2022-09-23T14:43:46;2.67;;;2.13;;
16173;SDS011;14031;50.158;8.626;2022-09-23T14:46:16;2.13;;;2.03;;
16173;SDS011;14031;50.158;8.626;2022-09-23T14:48:50;4.03;;;2.35;;
16173;SDS011;14031;50.158;8.626;2022-09-23T14:51:20;2.13;;;2.03;;
16173;SDS011;14031;50.158;8.626;2022-09-23T14:53:53;2.08;;;1.98;;
16173;SDS011;14031;50.158;8.626;2022-09-23T14:56:21;1.98;;;1.88;;
16173;SDS011;14031;50.158;8.626;2022-09-23T14:58:50;1.77;;;1.67;;
16173;SDS011;14031;50.158;8.626;2022-09-23T15:01:34;2.38;;;2.22;;
16173;SDS011;14031;50.158;8.626;2022-09-23T15:04:15;2.38;;;2.20;;
16173;SDS011;14031;50.158;8.626;2022-09-23T15:06:54;1.95;;;1.85;;
16173;SDS011;14031;50.158;8.626;2022-09-23T15:09:24;2.30;;;2.10;;
16173;SDS011;14031;50.158;8.626;2022-09-23T15:11:54;2.53;;;2.42;;
16173;SDS011;14031;50.158;8.626;2022-09-23T15:14:25;2.10;;;1.90;;
16173;SDS011;14031;50.158;8.626;2022-09-23T15:16:54;5.63;;;1.95;;
16173;SDS011;14031;50.158;8.626;2022-09-23T15:19:21;3.38;;;1.85;;
16173;SDS011;14031;50.158;8.626;2022-09-23T15:21:49;2.28;;;1.98;;
16173;SDS011;14031;50.158;8.626;2022-09-23T15:24:31;2.22;;;2.00;;
16173;SDS011;14031;50.158;8.626;2022-09-23T15:27:08;2.13;;;2.03;;
16173;SDS011;14031;50.158;8.626;2022-09-23T15:29:36;5.07;;;4.15;;
16173;SDS011;14031;50.158;8.626;2022-09-23T15:32:03;2.10;;;2.00;;
16173;SDS011;14031;50.158;8.626;2022-09-23T15:34:32;2.15;;;2.05;;
16173;SDS011;14031;50.158;8.626;2022-09-23T15:37:00;2.33;;;1.98;;